createdAt,value
2023-04-11T00:02:20.276Z,1.1
2023-04-11T00:08:10.873Z,0.8
2023-04-11T00:14:02.318Z,1.1
2023-04-11T00:19:57.030Z,1.1
2023-04-11T00:25:48.039Z,1.5
2023-04-11T00:31:39.254Z,1
2023-04-11T00:37:33.445Z,1
2023-04-11T00:43:24.871Z,1.3
2023-04-11T00:49:17.160Z,1.1
2023-04-11T00:55:08.635Z,1.3
2023-04-11T01:01:00.371Z,1.2
2023-04-11T01:06:51.887Z,1.2
2023-04-11T01:12:43.700Z,1.3
2023-04-11T01:18:36.128Z,1.7
2023-04-11T01:24:28.653Z,1.5
2023-04-11T01:30:19.809Z,1.7
2023-04-11T01:36:13.416Z,1.4
2023-04-11T01:42:06.141Z,1.8
2023-04-11T01:47:58.969Z,1.5
2023-04-11T01:53:51.121Z,1.5
2023-04-11T01:59:42.144Z,1.5
2023-04-11T02:05:34.139Z,1.8
2023-04-11T02:11:27.041Z,2.1
2023-04-11T02:17:19.251Z,2.2
2023-04-11T02:23:12.669Z,1.7
2023-04-11T02:29:04.575Z,2.1
2023-04-11T02:34:58.020Z,2.2
2023-04-11T02:40:48.091Z,2.3
2023-04-11T02:46:39.519Z,2.6
2023-04-11T02:52:32.051Z,2.2
2023-04-11T02:58:26.104Z,2.2
2023-04-11T03:04:18.707Z,2.5
2023-04-11T03:10:10.828Z,2.2
2023-04-11T03:16:02.591Z,2.4
2023-04-11T03:21:54.691Z,3.2
2023-04-11T03:27:46.804Z,2.1
2023-04-11T03:33:38.598Z,2.1
2023-04-11T03:39:29.992Z,2.2
2023-04-11T03:45:21.907Z,3.4
2023-04-11T03:51:14.246Z,3
2023-04-11T03:57:06.063Z,2.8
2023-04-11T04:03:00.612Z,3.1
2023-04-11T04:08:52.794Z,3
2023-04-11T04:14:44.739Z,3
2023-04-11T04:20:39.202Z,3.5
2023-04-11T04:26:32.059Z,3.2
2023-04-11T15:59:39.120Z,1.6
2023-04-11T18:28:24.858Z,3.7
2023-04-11T18:34:28.133Z,3.5
2023-04-11T18:40:20.230Z,2.9
2023-04-11T18:46:14.370Z,2
2023-04-11T18:52:19.775Z,2.1
2023-04-11T18:58:29.893Z,2.3
2023-04-11T19:04:25.900Z,3
2023-04-11T19:10:20.137Z,6.3
2023-04-11T19:40:30.613Z,4.7
2023-04-11T20:04:45.012Z,5
2023-04-11T20:46:08.005Z,3.2
2023-04-11T21:33:40.647Z,2
2023-04-11T21:39:33.987Z,2.1
2023-04-11T21:45:33.459Z,2
2023-04-11T21:51:30.953Z,2.4
2023-04-11T21:57:23.401Z,2.2
2023-04-11T22:03:27.205Z,2.2
2023-04-11T22:21:31.092Z,2.1
2023-04-11T22:27:24.362Z,2.3
2023-04-11T22:33:15.605Z,2.1
2023-04-11T22:39:07.966Z,2.3
2023-04-11T22:45:01.642Z,2.2
2023-04-11T22:50:53.280Z,2.1
2023-04-11T22:56:45.966Z,2.2
2023-04-11T23:02:38.927Z,2
2023-04-11T23:08:31.595Z,2.2
2023-04-11T23:14:24.343Z,2.5
2023-04-11T23:20:16.778Z,2.4
2023-04-11T23:26:09.558Z,2
2023-04-11T23:32:02.181Z,1.9
2023-04-11T23:37:54.025Z,2.1
2023-04-11T23:43:44.923Z,2.3
2023-04-11T23:49:39.585Z,2.1
2023-04-11T23:55:31.962Z,2.4
